Terminal Aerodrome Forecast
Issued by NWS

Home | Current Version | Previous Version | Text Only | Print | Product List | Glossary On
Versions: 1 2 3 4 5 6 7 8 9 10 11 12 13 14 15 16 17 18 19 20 21 22 23 24 25 26 27 28
000
FTUS42 KGSP 222321
TAFGMU
TAF
KGMU 222321Z 2300/2324 05011KT 4SM -SHRA BR BKN007 OVC030
     FM230300 17011KT 4SM BR OVC003
      TEMPO 2303/2307 2SM -TSRA BR OVC003CB
     FM230700 18007KT 3SM -SHRA BR OVC003 PROB30 2310/2314 3/4SM
      -SHRA BR
     FM231400 26005KT P6SM -SHRA OVC003
     FM232000 30012KT P6SM -SHRA BKN050=

USA.gov is the U.S. government's official web portal to all federal, state and local government web resources and services.